| time (UTC) | temp F | wind direction | speed MPH | gust MPH | rain 1hr in | rain 24hr in | rain mn in | humidity % | barometer mb |
| 20260906101457 | 69 | 72 | 2.0 | 5.0 | 0.00 | 0.00 | 0.00 | 93 | 1015.6 |
| 20260906095957 | 69 | 107 | 0.0 | 3.0 | 0.00 | 0.00 | 0.00 | 93 | 1015.4 |
| 20260906094457 | 69 | 90 | 1.0 | 3.0 | 0.00 | 0.00 | 0.00 | 93 | 1015.2 |
| 20260906091458 | 70 | 67 | 1.0 | 9.0 | 0.00 | 0.00 | 0.00 | 93 | 1014.7 |
| 20260906085957 | 70 | 85 | 2.0 | 10.0 | 0.00 | 0.00 | 0.00 | 93 | 1014.7 |
| 20260906084457 | 70 | 91 | 2.0 | 7.0 | 0.00 | 0.00 | 0.00 | 93 | 1014.6 |
| 20260906082957 | 70 | 83 | 2.0 | 8.0 | 0.00 | 0.00 | 0.00 | 93 | 1014.8 |
| 20260906081457 | 70 | 61 | 2.0 | 3.0 | 0.00 | 0.00 | 0.00 | 92 | 1014.8 |
| 20260906075957 | 71 | 115 | 1.0 | 8.0 | 0.00 | 0.00 | 0.00 | 92 | 1014.6 |
| 20260906074458 | 71 | 90 | 3.0 | 9.0 | 0.00 | 0.00 | 0.00 | 91 | 1014.7 |
| 20260906072958 | 71 | 71 | 3.0 | 10.0 | 0.00 | 0.00 | 0.00 | 91 | 1014.8 |
| 20260906071457 | 71 | 63 | 5.0 | 9.0 | 0.00 | 0.00 | 0.00 | 91 | 1014.9 |
| 20260906064457 | 72 | 71 | 3.0 | 7.0 | 0.00 | 0.00 | 0.00 | 90 | 1015.2 |
| 20260906062958 | 72 | 96 | 3.0 | 8.0 | 0.00 | 0.00 | 0.00 | 90 | 1015.1 |
| 20260906061457 | 72 | 64 | 3.0 | 7.0 | 0.00 | 0.00 | 0.00 | 90 | 1015.1 |
| 20260906055957 | 73 | 94 | 2.0 | 8.0 | 0.00 | 0.00 | 0.00 | 90 | 1015.0 |
| 20260906054457 | 73 | 63 | 3.0 | 9.0 | 0.00 | 0.00 | 0.00 | 89 | 1014.9 |
| 20260906052957 | 73 | 38 | 3.0 | 8.0 | 0.00 | 0.00 | 0.00 | 90 | 1014.9 |
| 20260906051458 | 73 | 57 | 3.0 | 8.0 | 0.00 | 0.00 | 0.00 | 89 | 1014.7 |
| 20260906045957 | 73 | 77 | 3.0 | 8.0 | 0.00 | 0.00 | 0.00 | 89 | 1014.6 |
| 20260906044458 | 74 | 70 | 3.0 | 8.0 | 0.00 | 0.00 | 0.00 | 88 | 1014.7 |
| 20260906042958 | 74 | 73 | 3.0 | 10.0 | 0.00 | 0.00 | 0.00 | 88 | 1014.7 |
| 20260906041457 | 74 | 44 | 4.0 | 7.0 | 0.00 | 0.00 | 0.00 | 88 | 1014.8 |
| 20260906035957 | 75 | 86 | 2.0 | 7.0 | 0.00 | 0.00 | 0.00 | 88 | 1014.7 |
| 20260906034458 | 75 | 60 | 3.0 | 8.0 | 0.00 | 0.00 | 0.00 | 87 | 1014.6 |
| 20260906032957 | 75 | 82 | 4.0 | 10.0 | 0.00 | 0.00 | 0.00 | 87 | 1014.4 |
| 20260906031458 | 75 | 63 | 5.0 | 10.0 | 0.00 | 0.00 | 0.00 | 86 | 1014.4 |
| 20260906025957 | 75 | 65 | 5.0 | 9.0 | 0.00 | 0.00 | 0.00 | 86 | 1014.2 |
| 20260906024458 | 76 | 65 | 4.0 | 10.0 | 0.00 | 0.00 | 0.00 | 86 | 1014.1 |
| 20260906022958 | 76 | 61 | 4.0 | 9.0 | 0.00 | 0.00 | 0.00 | 86 | 1014.0 |
| 20260906021458 | 76 | 85 | 3.0 | 10.0 | 0.00 | 0.00 | 0.00 | 85 | 1013.7 |
| 20260906015957 | 77 | 90 | 5.0 | 9.0 | 0.00 | 0.00 | 0.00 | 84 | 1013.5 |
| 20260906014458 | 77 | 81 | 1.0 | 5.0 | 0.00 | 0.00 | 0.00 | 83 | 1013.2 |
| 20260906012958 | 78 | 83 | 1.0 | 5.0 | 0.00 | 0.00 | 0.00 | 83 | 1013.0 |
| 20260906011457 | 78 | 61 | 1.0 | 6.0 | 0.00 | 0.00 | 0.00 | 83 | 1012.9 |
| 20260906005958 | 78 | 89 | 2.0 | 3.0 | 0.00 | 0.00 | 0.00 | 83 | 1012.8 |
| 20260906002958 | 79 | 79 | 2.0 | 6.0 | 0.00 | 0.00 | 0.00 | 82 | 1012.6 |
| 20260906001457 | 80 | 71 | 1.0 | 8.0 | 0.00 | 0.00 | 0.00 | 81 | 1012.8 |
| 20260905235958 | 80 | 63 | 2.0 | 9.0 | 0.00 | 0.00 | 0.00 | 80 | 1012.5 |
| 20260905234457 | 80 | 65 | 3.0 | 8.0 | 0.00 | 0.00 | 0.00 | 79 | 1012.6 |
| 20260905232958 | 81 | 66 | 3.0 | 8.0 | 0.00 | 0.00 | 0.00 | 78 | 1012.5 |
| 20260905231458 | 81 | 84 | 6.0 | 12.0 | 0.00 | 0.00 | 0.00 | 78 | 1012.3 |
| 20260905224458 | 83 | 70 | 6.0 | 14.0 | 0.00 | 0.00 | 0.00 | 77 | 1011.9 |
| 20260905222958 | 83 | 72 | 6.0 | 17.0 | 0.00 | 0.00 | 0.00 | 77 | 1011.9 |
| 20260905221458 | 84 | 81 | 9.0 | 16.0 | 0.00 | 0.00 | 0.00 | 77 | 1011.8 |
| 20260905215958 | 84 | 67 | 8.0 | 16.0 | 0.00 | 0.00 | 0.00 | 77 | 1011.7 |
| 20260905212958 | 86 | 76 | 7.0 | 12.0 | 0.00 | 0.00 | 0.00 | 74 | 1011.8 |
| 20260905211458 | 86 | 36 | 5.0 | 12.0 | 0.00 | 0.00 | 0.00 | 75 | 1011.9 |
| 20260905205958 | 87 | 66 | 5.0 | 12.0 | 0.00 | 0.00 | 0.00 | 73 | 1012.2 |
| 20260905204458 | 87 | 42 | 6.0 | 12.0 | 0.00 | 0.00 | 0.00 | 73 | 1012.1 |
| 20260905202957 | 87 | 8 | 5.0 | 12.0 | 0.00 | 0.00 | 0.00 | 72 | 1012.4 |
| 20260905201458 | 88 | 2 | 5.0 | 12.0 | 0.00 | 0.00 | 0.00 | 71 | 1012.3 |
| 20260905195958 | 88 | 348 | 6.0 | 10.0 | 0.00 | 0.00 | 0.00 | 71 | 1012.6 |
| 20260905194458 | 89 | 71 | 5.0 | 12.0 | 0.00 | 0.00 | 0.00 | 70 | 1012.4 |
| 20260905185958 | 87 | 34 | 3.0 | 9.0 | 0.00 | 0.00 | 0.00 | 74 | 1013.1 |
| 20260905184458 | 87 | 4 | 5.0 | 9.0 | 0.00 | 0.00 | 0.00 | 75 | 1013.2 |
| 20260905182958 | 87 | 27 | 5.0 | 9.0 | 0.00 | 0.00 | 0.00 | 75 | 1013.1 |
| 20260905181457 | 87 | 74 | 5.0 | 10.0 | 0.00 | 0.00 | 0.00 | 75 | 1013.3 |
| 20260905175958 | 87 | 25 | 3.0 | 10.0 | 0.00 | 0.00 | 0.00 | 75 | 1013.0 |
| 20260905174458 | 87 | 83 | 6.0 | 10.0 | 0.00 | 0.00 | 0.00 | 73 | 1013.0 |
| 20260905172958 | 87 | 37 | 5.0 | 10.0 | 0.00 | 0.00 | 0.00 | 74 | 1012.9 |
| 20260905171458 | 86 | 49 | 3.0 | 12.0 | 0.00 | 0.00 | 0.00 | 77 | 1013.0 |
| 20260905162958 | 85 | 78 | 6.0 | 12.0 | 0.00 | 0.06 | 0.00 | 76 | 1013.3 |
| 20260905161458 | 85 | 48 | 3.0 | 12.0 | 0.00 | 0.06 | 0.00 | 77 | 1013.3 |
| 20260905154458 | 85 | 31 | 6.0 | 12.0 | 0.00 | 0.06 | 0.00 | 78 | 1013.2 |
| 20260905152958 | 84 | 69 | 5.0 | 12.0 | 0.00 | 0.06 | 0.00 | 79 | 1013.1 |
| 20260905151458 | 83 | 69 | 6.0 | 14.0 | 0.00 | 0.06 | 0.00 | 78 | 1013.0 |
| 20260905145958 | 82 | 83 | 3.0 | 10.0 | 0.00 | 0.06 | 0.00 | 80 | 1012.9 |
| 20260905142958 | 79 | 37 | 4.0 | 8.0 | 0.00 | 0.06 | 0.00 | 84 | 1012.5 |
| 20260905141458 | 78 | 67 | 4.0 | 9.0 | 0.00 | 0.06 | 0.00 | 86 | 1012.6 |
| 20260905135958 | 77 | 42 | 4.0 | 9.0 | 0.00 | 0.06 | 0.00 | 87 | 1012.6 |
| 20260905132958 | 75 | 38 | 2.0 | 8.0 | 0.00 | 0.06 | 0.00 | 90 | 1012.1 |
| 20260905131459 | 75 | 35 | 2.0 | 5.0 | 0.00 | 0.06 | 0.00 | 91 | 1012.1 |
| 20260905125958 | 74 | 81 | 2.0 | 6.0 | 0.00 | 0.06 | 0.00 | 92 | 1011.8 |
| 20260905124458 | 74 | 34 | 2.0 | 5.0 | 0.00 | 0.06 | 0.00 | 93 | 1011.7 |
| 20260905122958 | 74 | 61 | 2.0 | 5.0 | 0.00 | 0.06 | 0.00 | 94 | 1011.5 |
| 20260905121458 | 73 | 52 | 2.0 | 5.0 | 0.00 | 0.06 | 0.00 | 95 | 1011.6 |
| 20260905114458 | 73 | 27 | 2.0 | 5.0 | 0.00 | 0.06 | 0.00 | 94 | 1011.4 |
| 20260905112958 | 72 | 41 | 2.0 | 3.0 | 0.00 | 0.06 | 0.00 | 94 | 1010.8 |
| 20260905111458 | 72 | 46 | 1.0 | 2.0 | 0.00 | 0.06 | 0.00 | 94 | 1011.0 |
| 20260905105958 | 72 | 32 | 0.0 | 3.0 | 0.00 | 0.06 | 0.00 | 94 | 1010.9 |
| 20260905104459 | 73 | 19 | 1.0 | 3.0 | 0.00 | 0.06 | 0.00 | 94 | 1010.8 |